Time;durP1;ratioP1;P1;durP2;ratioP2;P2;SDS_P1;SDS_P2;PMS_P1;PMS_P2;Temp;Humidity;BMP_temperature;BMP_pressure;BME280_temperature;BME280_humidity;BME280_pressure;Samples;Min_cycle;Max_cycle;Signal;HPM_P1;HPM_P2
2023/07/22 09:00:26;;;;;;;4.38;2.20;;;20.10;97.20;;;;;;7544292;19;20374;-72
2023/07/22 09:03:00;;;;;;;4.00;2.58;;;19.80;98.20;;;;;;7583089;19;21822;-73
2023/07/22 09:05:34;;;;;;;4.85;1.92;;;20.00;98.20;;;;;;7565528;19;23799;-72
2023/07/22 09:08:08;;;;;;;5.05;2.20;;;20.10;96.80;;;;;;7589920;19;20109;-72
2023/07/22 09:10:41;;;;;;;3.10;2.30;;;20.20;97.10;;;;;;7590867;19;20015;-72
2023/07/22 09:13:15;;;;;;;5.75;2.45;;;20.40;97.70;;;;;;7532097;19;20014;-72
2023/07/22 09:15:50;;;;;;;2.33;1.83;;;20.40;96.00;;;;;;7575257;19;20020;-72
2023/07/22 09:18:22;;;;;;;4.90;2.15;;;20.60;95.90;;;;;;7579820;19;20631;-71
2023/07/22 09:20:55;;;;;;;6.20;2.00;;;20.70;95.40;;;;;;7558376;19;20014;-71
2023/07/22 09:23:38;;;;;;;6.45;2.22;;;20.80;95.70;;;;;;7578822;19;20018;-71
2023/07/22 09:26:11;;;;;;;4.80;1.77;;;20.80;95.10;;;;;;7540688;19;20014;-71
2023/07/22 09:28:54;;;;;;;;;;;20.80;95.40;;;;;;7586149;19;21060;-71
2023/07/22 09:31:30;;;;;;;4.80;1.73;;;21.00;95.60;;;;;;7575320;19;19940;-71
2023/07/22 09:34:10;;;;;;;4.10;1.88;;;21.00;92.70;;;;;;7565460;19;20033;-71
2023/07/22 09:36:56;;;;;;;2.67;2.03;;;21.00;92.70;;;;;;7567603;19;21133;-71
2023/07/22 09:39:29;;;;;;;4.38;2.10;;;20.90;92.30;;;;;;7528290;19;20014;-71
2023/07/22 09:42:03;;;;;;;3.33;1.73;;;20.90;93.80;;;;;;7579050;19;20530;-71
2023/07/22 09:44:37;;;;;;;2.65;1.55;;;21.00;93.80;;;;;;7554201;19;20022;-70
2023/07/22 09:47:10;;;;;;;4.43;1.80;;;21.00;92.80;;;;;;7540407;19;20059;-71
2023/07/22 09:49:44;;;;;;;3.33;2.00;;;21.20;92.90;;;;;;7537150;19;20016;-71
2023/07/22 09:52:17;;;;;;;2.25;1.90;;;21.30;91.20;;;;;;7575313;19;20064;-71
2023/07/22 09:54:50;;;;;;;3.53;2.10;;;21.30;91.90;;;;;;7602507;19;20033;-71
2023/07/22 09:57:23;;;;;;;4.77;2.27;;;21.40;92.10;;;;;;7603630;19;20047;-71
2023/07/22 09:59:56;;;;;;;4.43;2.00;;;21.40;90.70;;;;;;7603535;19;20829;-71
2023/07/22 10:02:30;;;;;;;5.68;2.13;;;21.40;92.50;;;;;;7589839;19;20014;-70
2023/07/22 10:05:04;;;;;;;2.72;2.00;;;21.70;92.10;;;;;;7571630;19;20195;-72
2023/07/22 10:07:39;;;;;;;3.25;1.90;;;21.80;90.50;;;;;;7629022;19;20018;-72
2023/07/22 10:10:14;;;;;;;7.57;1.90;;;21.90;87.60;;;;;;7592230;19;20018;-71
2023/07/22 10:12:47;;;;;;;3.28;1.60;;;22.00;90.20;;;;;;7579549;19;20042;-71
2023/07/22 10:15:19;;;;;;;3.33;1.83;;;22.10;85.30;;;;;;7580146;19;20029;-71
2023/07/22 10:17:54;;;;;;;4.45;1.70;;;22.20;84.40;;;;;;7573917;19;20026;-71
2023/07/22 10:20:29;;;;;;;4.15;2.03;;;22.20;84.40;;;;;;7587985;19;21026;-71
2023/07/22 10:23:02;;;;;;;5.75;2.03;;;22.20;82.80;;;;;;7590754;19;20616;-72
2023/07/22 10:25:36;;;;;;;3.92;2.08;;;22.20;82.60;;;;;;7589744;19;20015;-71
2023/07/22 10:28:11;;;;;;;2.63;1.60;;;22.70;86.10;;;;;;7577498;19;20022;-72
2023/07/22 10:30:44;;;;;;;3.65;2.05;;;23.30;81.20;;;;;;7573886;19;20056;-71
2023/07/22 10:33:16;;;;;;;2.47;1.60;;;24.10;80.80;;;;;;7573448;19;20018;-73
2023/07/22 10:36:15;;;;;;;2.38;2.05;;;24.70;75.80;;;;;;7567477;19;20010;-71
2023/07/22 10:38:59;;;;;;;2.92;2.00;;;24.50;76.10;;;;;;7554883;19;20014;-71
2023/07/22 10:41:38;;;;;;;2.10;1.73;;;24.70;75.20;;;;;;7576882;19;20337;-70
2023/07/22 10:44:12;;;;;;;2.58;1.80;;;25.10;74.10;;;;;;7586213;19;20022;-72
2023/07/22 10:46:56;;;;;;;;;;;25.30;70.20;;;;;;7571152;19;20022;-71
2023/07/22 10:49:48;;;;;;;2.80;2.10;;;25.60;69.70;;;;;;7589914;19;20715;-71
2023/07/22 10:52:41;;;;;;;3.38;1.88;;;25.70;67.50;;;;;;7591154;19;20021;-72
2023/07/22 10:55:16;;;;;;;2.55;1.65;;;26.10;68.70;;;;;;7575008;19;20507;-72
2023/07/22 10:57:51;;;;;;;2.90;2.20;;;25.90;66.40;;;;;;7582544;19;20010;-72
2023/07/22 11:00:30;;;;;;;2.55;2.00;;;25.70;65.30;;;;;;7579922;19;20131;-72
2023/07/22 11:03:13;;;;;;;3.88;2.35;;;25.80;63.60;;;;;;7581042;19;20019;-72
2023/07/22 11:05:50;;;;;;;2.25;1.90;;;25.80;64.70;;;;;;7569429;19;20034;-71
2023/07/22 11:08:40;;;;;;;2.72;2.08;;;25.90;64.70;;;;;;7566259;19;20022;-71
2023/07/22 11:11:12;;;;;;;4.50;2.20;;;25.70;63.70;;;;;;7575331;19;20014;-72
2023/07/22 11:13:45;;;;;;;2.10;1.90;;;25.90;64.30;;;;;;7563714;19;20691;-71
2023/07/22 11:16:18;;;;;;;3.20;1.95;;;26.10;66.00;;;;;;7566605;19;20016;-71
2023/07/22 11:18:51;;;;;;;3.50;1.65;;;26.20;66.60;;;;;;7579589;19;20495;-71
2023/07/22 11:21:23;;;;;;;2.15;1.92;;;26.30;65.20;;;;;;7575100;19;20487;-71
2023/07/22 11:23:55;;;;;;;4.13;2.25;;;26.30;63.50;;;;;;7544184;19;22254;-72
2023/07/22 11:26:27;;;;;;;6.63;2.35;;;26.30;65.00;;;;;;7584150;19;20018;-72
2023/07/22 11:29:01;;;;;;;6.05;2.20;;;26.40;62.80;;;;;;7573245;19;20021;-72
2023/07/22 11:31:42;;;;;;;3.72;2.20;;;26.50;62.10;;;;;;7574375;19;20050;-72
2023/07/22 11:34:17;;;;;;;3.15;1.90;;;27.10;63.20;;;;;;7559357;19;21374;-71
2023/07/22 11:36:52;;;;;;;2.97;2.10;;;26.90;61.00;;;;;;7567794;19;20391;-71
2023/07/22 11:39:26;;;;;;;2.30;1.85;;;26.60;61.40;;;;;;7589099;19;20054;-71
2023/07/22 11:42:01;;;;;;;2.38;1.90;;;26.50;61.00;;;;;;7567316;19;20022;-71
2023/07/22 11:44:34;;;;;;;4.03;2.08;;;26.60;60.10;;;;;;7564494;19;20030;-72
2023/07/22 11:47:11;;;;;;;4.78;2.28;;;26.30;62.40;;;;;;7556406;19;20852;-73
2023/07/22 11:49:48;;;;;;;4.50;2.10;;;26.10;60.80;;;;;;7545371;19;20029;-72
2023/07/22 11:52:20;;;;;;;2.90;1.90;;;26.10;60.90;;;;;;7533296;19;20019;-72
2023/07/22 11:54:52;;;;;;;3.70;2.28;;;26.10;59.80;;;;;;7551296;19;20010;-71
2023/07/22 11:57:25;;;;;;;3.83;2.53;;;26.30;63.00;;;;;;7579330;19;20622;-72
2023/07/22 11:59:57;;;;;;;3.42;2.17;;;26.70;59.50;;;;;;7548794;19;20086;-73
2023/07/22 12:02:31;;;;;;;3.05;2.00;;;26.90;61.20;;;;;;7554142;19;20607;-72
2023/07/22 12:05:05;;;;;;;5.95;2.17;;;27.10;60.00;;;;;;7556641;19;20018;-72
2023/07/22 12:07:39;;;;;;;3.05;2.40;;;26.80;57.90;;;;;;7578072;19;20018;-72
2023/07/22 12:10:11;;;;;;;3.50;2.30;;;26.70;59.80;;;;;;7574689;19;20025;-72
2023/07/22 12:12:46;;;;;;;4.65;2.28;;;26.10;57.80;;;;;;7542233;19;20020;-73
2023/07/22 12:15:21;;;;;;;2.80;2.20;;;26.30;59.30;;;;;;7059636;19;9999879;-73
2023/07/22 12:17:59;;;;;;;4.38;2.80;;;26.60;59.50;;;;;;7541739;19;20018;-72
2023/07/22 12:20:33;;;;;;;5.05;2.20;;;26.80;57.70;;;;;;7576379;19;21493;-74
2023/07/22 12:23:06;;;;;;;8.80;2.00;;;26.90;60.00;;;;;;7566739;19;20309;-73
2023/07/22 12:25:39;;;;;;;5.30;2.37;;;27.20;59.60;;;;;;7542529;19;20018;-73
2023/07/22 12:28:12;;;;;;;4.93;2.33;;;27.90;59.50;;;;;;7540939;19;20370;-75
2023/07/22 12:30:44;;;;;;;3.42;2.08;;;28.10;57.90;;;;;;7565856;19;20022;-73
2023/07/22 12:33:17;;;;;;;4.90;2.30;;;27.80;56.90;;;;;;7546824;19;20032;-72
2023/07/22 12:35:51;;;;;;;;;;;28.10;55.00;;;;;;7565535;19;20941;-73
2023/07/22 12:38:34;;;;;;;4.53;2.50;;;28.40;56.90;;;;;;7554548;19;19935;-75
2023/07/22 12:41:10;;;;;;;6.18;2.78;;;28.70;54.80;;;;;;7551061;19;21044;-72
2023/07/22 12:43:42;;;;;;;2.75;2.05;;;28.70;53.30;;;;;;7542391;19;20511;-73
2023/07/22 12:46:15;;;;;;;5.10;2.13;;;28.50;53.00;;;;;;7508000;19;21424;-73
2023/07/22 12:48:47;;;;;;;4.78;2.45;;;28.50;53.10;;;;;;7543372;19;20098;-73
2023/07/22 12:51:21;;;;;;;3.00;2.22;;;27.80;53.90;;;;;;7548975;19;20023;-73
2023/07/22 12:53:54;;;;;;;7.55;2.72;;;27.50;56.30;;;;;;7565526;19;20014;-75
2023/07/22 12:56:26;;;;;;;2.80;2.22;;;27.20;55.80;;;;;;7547281;19;20347;-73
2023/07/22 12:58:59;;;;;;;2.58;2.08;;;26.80;56.80;;;;;;7551960;19;20014;-73
2023/07/22 13:01:32;;;;;;;3.95;2.17;;;26.60;59.00;;;;;;7535089;19;20604;-73
2023/07/22 13:04:05;;;;;;;3.05;2.25;;;26.80;57.10;;;;;;7531624;19;20022;-73
2023/07/22 13:06:37;;;;;;;5.15;2.25;;;27.00;61.20;;;;;;7559511;19;20011;-73
2023/07/22 13:09:10;;;;;;;2.80;2.17;;;27.10;56.60;;;;;;7514676;19;20080;-72
2023/07/22 13:11:43;;;;;;;3.83;2.20;;;27.10;57.40;;;;;;7524881;19;20122;-73
2023/07/22 13:14:18;;;;;;;2.30;2.03;;;26.90;54.10;;;;;;6994949;19;9999824;-72
2023/07/22 13:16:50;;;;;;;4.05;2.40;;;26.80;56.00;;;;;;7504192;19;20014;-73
2023/07/22 13:19:23;;;;;;;3.35;2.45;;;27.10;57.80;;;;;;7498722;19;20014;-72
2023/07/22 13:21:56;;;;;;;4.22;2.30;;;26.80;56.00;;;;;;7539062;19;20114;-73
2023/07/22 13:24:29;;;;;;;3.83;2.38;;;26.70;54.70;;;;;;7527928;19;20017;-72
2023/07/22 13:27:01;;;;;;;2.90;2.30;;;26.70;57.00;;;;;;7487728;19;20966;-74
2023/07/22 13:29:34;;;;;;;3.08;2.50;;;26.90;57.10;;;;;;7559957;19;20014;-73
2023/07/22 13:32:07;;;;;;;4.63;2.38;;;26.60;56.50;;;;;;7484168;19;22327;-72
2023/07/22 13:34:39;;;;;;;5.32;2.55;;;26.30;57.60;;;;;;7500684;19;20007;-72
2023/07/22 13:37:12;;;;;;;3.75;2.70;;;26.30;56.00;;;;;;7524604;19;20022;-73
2023/07/22 13:39:45;;;;;;;4.32;2.90;;;26.20;56.90;;;;;;7534107;19;20481;-72
2023/07/22 13:42:17;;;;;;;4.50;2.70;;;26.10;55.90;;;;;;7541415;19;20044;-73
2023/07/22 13:44:50;;;;;;;4.97;2.58;;;26.60;58.00;;;;;;7585251;19;20453;-73
2023/07/22 13:47:22;;;;;;;3.70;2.33;;;26.50;58.20;;;;;;7550192;19;20022;-72
2023/07/22 13:49:54;;;;;;;3.95;2.35;;;26.80;59.40;;;;;;7562410;19;20144;-74
2023/07/22 13:52:26;;;;;;;4.77;2.23;;;26.60;57.10;;;;;;7579496;19;20023;-73
2023/07/22 13:54:59;;;;;;;3.55;2.20;;;26.80;58.30;;;;;;7565708;19;20051;-72
2023/07/22 13:57:31;;;;;;;4.72;2.40;;;27.10;57.50;;;;;;7574763;19;20556;-73
2023/07/22 14:00:10;;;;;;;3.15;2.42;;;26.40;55.90;;;;;;7557424;19;20006;-71
2023/07/22 14:02:45;;;;;;;3.92;2.50;;;26.60;57.60;;;;;;7590265;19;20015;-75
2023/07/22 14:05:18;;;;;;;3.20;2.40;;;26.50;57.00;;;;;;7574638;19;20094;-72
2023/07/22 14:07:50;;;;;;;5.60;2.75;;;26.30;56.60;;;;;;7565559;19;20015;-74
2023/07/22 14:10:22;;;;;;;2.65;2.13;;;26.00;56.80;;;;;;7573915;19;21457;-74
2023/07/22 14:12:54;;;;;;;3.55;2.53;;;26.00;57.70;;;;;;7559855;19;20362;-72
2023/07/22 14:15:27;;;;;;;5.60;2.67;;;25.90;58.50;;;;;;7576784;19;20014;-72
2023/07/22 14:17:59;;;;;;;3.15;2.63;;;25.80;58.00;;;;;;7564195;19;20135;-73
2023/07/22 14:20:32;;;;;;;2.97;2.30;;;25.80;58.80;;;;;;7581781;19;20014;-72
2023/07/22 14:23:04;;;;;;;3.95;2.60;;;25.60;56.40;;;;;;7582274;19;20065;-74
2023/07/22 14:25:37;;;;;;;3.20;2.63;;;25.70;58.50;;;;;;7579405;19;20019;-73
2023/07/22 14:28:09;;;;;;;7.47;2.33;;;26.40;56.20;;;;;;7563920;19;20021;-74
2023/07/22 14:30:41;;;;;;;2.90;2.20;;;26.90;55.20;;;;;;7579509;19;20021;-73
2023/07/22 14:33:17;;;;;;;3.42;2.45;;;27.40;51.90;;;;;;7541354;19;20022;-72
2023/07/22 14:35:50;;;;;;;3.53;2.30;;;27.60;53.20;;;;;;7543997;19;20022;-73
2023/07/22 14:38:22;;;;;;;4.45;2.55;;;27.80;51.70;;;;;;7557670;19;20022;-72
2023/07/22 14:40:55;;;;;;;3.92;2.70;;;27.50;54.10;;;;;;7555662;19;20094;-73
2023/07/22 14:43:27;;;;;;;3.00;2.40;;;27.50;54.30;;;;;;7531264;19;20435;-73
2023/07/22 14:45:59;;;;;;;2.92;2.35;;;27.60;52.80;;;;;;7574912;19;20361;-74
2023/07/22 14:48:32;;;;;;;3.53;2.78;;;27.90;52.40;;;;;;7570633;19;20677;-72
2023/07/22 14:51:04;;;;;;;3.58;2.63;;;28.10;50.70;;;;;;7545538;19;20019;-73
2023/07/22 14:53:36;;;;;;;4.73;2.90;;;27.90;51.20;;;;;;7570650;19;20033;-72
2023/07/22 14:56:08;;;;;;;4.83;3.03;;;27.70;50.50;;;;;;7566980;19;20045;-72
2023/07/22 14:58:41;;;;;;;4.38;3.20;;;27.60;52.40;;;;;;7591798;19;20559;-74
2023/07/22 15:01:13;;;;;;;2.42;2.20;;;28.00;50.90;;;;;;7569998;19;20667;-72
2023/07/22 15:03:46;;;;;;;3.43;2.70;;;28.20;50.90;;;;;;7575922;19;20392;-73
2023/07/22 15:06:19;;;;;;;4.75;3.20;;;28.40;52.90;;;;;;7566636;19;20022;-73
2023/07/22 15:08:51;;;;;;;4.72;2.72;;;28.50;49.80;;;;;;7581504;19;20481;-74
2023/07/22 15:11:24;;;;;;;4.57;2.63;;;28.50;49.50;;;;;;7575009;19;21595;-73
2023/07/22 15:13:56;;;;;;;5.82;3.13;;;28.10;51.30;;;;;;7574455;19;20010;-72
2023/07/22 15:16:29;;;;;;;7.10;3.17;;;27.80;50.20;;;;;;6575006;19;10000274;-73
2023/07/22 15:19:01;;;;;;;3.80;2.78;;;27.70;52.80;;;;;;7574153;19;20006;-73
2023/07/22 15:21:33;;;;;;;3.88;2.90;;;27.80;51.20;;;;;;7575829;19;20014;-72
2023/07/22 15:24:06;;;;;;;3.47;2.90;;;27.80;49.20;;;;;;7576310;19;20061;-71
2023/07/22 15:26:38;;;;;;;4.13;3.20;;;28.10;50.30;;;;;;7557323;19;20093;-73
2023/07/22 15:29:10;;;;;;;7.00;2.70;;;28.30;49.90;;;;;;7581018;19;20019;-74
2023/07/22 15:31:43;;;;;;;3.43;2.83;;;28.40;50.70;;;;;;7581505;19;20287;-74
2023/07/22 15:34:15;;;;;;;4.70;3.08;;;28.40;49.20;;;;;;7554169;19;20010;-73
2023/07/22 15:36:48;;;;;;;3.88;2.70;;;28.30;50.20;;;;;;7583283;19;20018;-74
2023/07/22 15:39:20;;;;;;;7.25;3.30;;;28.50;51.20;;;;;;7573696;19;20188;-74
2023/07/22 15:41:52;;;;;;;3.57;2.67;;;28.70;49.80;;;;;;7558877;19;20011;-73
2023/07/22 15:44:28;;;;;;;6.35;3.28;;;29.10;50.80;;;;;;7544031;19;20026;-73
2023/07/22 15:47:00;;;;;;;4.70;3.15;;;29.30;50.70;;;;;;7554183;19;20042;-72
2023/07/22 15:49:32;;;;;;;4.90;3.22;;;28.70;48.20;;;;;;7554911;19;20084;-74
2023/07/22 15:52:05;;;;;;;5.23;3.40;;;28.70;49.90;;;;;;7568734;19;20236;-74
2023/07/22 15:54:37;;;;;;;4.75;3.35;;;28.70;48.30;;;;;;7559047;19;20019;-73
2023/07/22 15:57:10;;;;;;;5.47;3.28;;;28.20;48.10;;;;;;7570524;19;20022;-73
2023/07/22 15:59:43;;;;;;;4.32;3.33;;;27.80;49.30;;;;;;7582235;19;20015;-73
2023/07/22 16:02:15;;;;;;;5.30;3.20;;;27.50;49.70;;;;;;7580194;19;20496;-74
2023/07/22 16:04:48;;;;;;;3.90;2.90;;;28.00;51.10;;;;;;7571606;19;20086;-73
2023/07/22 16:07:20;;;;;;;7.45;3.75;;;28.20;51.50;;;;;;7566644;19;22890;-74
2023/07/22 16:09:52;;;;;;;5.25;3.58;;;28.40;50.40;;;;;;7574471;19;20010;-73
2023/07/22 16:12:26;;;;;;;6.57;3.67;;;28.30;49.20;;;;;;7563708;19;20018;-74
2023/07/22 16:14:58;;;;;;;4.47;3.13;;;28.10;49.90;;;;;;7584573;19;20060;-74
2023/07/22 16:17:32;;;;;;;4.75;3.75;;;28.50;48.40;;;;;;7549384;19;20089;-74
2023/07/22 16:20:05;;;;;;;4.20;3.17;;;28.40;48.70;;;;;;7570800;19;20015;-74
2023/07/22 16:22:37;;;;;;;;;;;28.00;50.00;;;;;;7589400;19;20029;-75
2023/07/22 16:25:11;;;;;;;4.20;3.20;;;28.20;48.10;;;;;;7553475;19;20038;-73
2023/07/22 16:27:44;;;;;;;4.47;3.67;;;28.10;47.50;;;;;;7575561;19;20038;-74
2023/07/22 16:30:16;;;;;;;7.07;4.23;;;27.80;48.20;;;;;;7570512;19;20018;-74
2023/07/22 16:32:48;;;;;;;4.70;3.20;;;27.40;49.80;;;;;;7575766;19;21401;-75
2023/07/22 16:35:20;;;;;;;4.07;3.30;;;27.00;49.50;;;;;;7559471;19;20014;-74
2023/07/22 16:37:52;;;;;;;5.03;3.03;;;26.60;50.50;;;;;;7556037;19;20015;-75
2023/07/22 16:40:26;;;;;;;5.18;3.70;;;27.00;50.40;;;;;;7564516;19;20068;-74
2023/07/22 16:42:58;;;;;;;5.90;3.33;;;27.30;50.50;;;;;;7574593;19;20039;-74
2023/07/22 16:45:30;;;;;;;4.45;3.47;;;27.60;50.40;;;;;;7566845;19;20017;-74
2023/07/22 16:48:03;;;;;;;5.67;3.73;;;27.60;49.50;;;;;;7576909;19;20030;-73
2023/07/22 16:50:35;;;;;;;4.47;3.42;;;27.80;49.50;;;;;;7543519;19;20048;-74
2023/07/22 16:53:09;;;;;;;4.05;2.97;;;27.70;49.80;;;;;;7584044;19;20019;-74
2023/07/22 16:55:42;;;;;;;5.22;3.20;;;27.60;50.00;;;;;;7568108;19;20026;-73
2023/07/22 16:58:14;;;;;;;4.47;3.63;;;27.30;51.20;;;;;;7561538;19;20686;-73
2023/07/22 17:00:47;;;;;;;5.90;3.38;;;27.40;50.90;;;;;;7573926;19;20350;-73
2023/07/22 17:03:19;;;;;;;5.47;3.15;;;27.10;51.10;;;;;;7552723;19;20026;-73
2023/07/22 17:05:52;;;;;;;9.07;3.33;;;26.80;52.70;;;;;;7526005;19;20022;-73
2023/07/22 17:08:24;;;;;;;6.18;3.38;;;26.60;51.80;;;;;;7544097;19;21269;-73
2023/07/22 17:10:56;;;;;;;3.80;3.08;;;26.30;52.90;;;;;;7583693;19;20048;-73
2023/07/22 17:13:28;;;;;;;5.28;3.75;;;26.20;51.50;;;;;;7567970;19;20018;-73
2023/07/22 17:16:00;;;;;;;5.07;3.63;;;25.80;52.40;;;;;;7562314;19;20029;-73
2023/07/22 17:18:33;;;;;;;6.63;3.63;;;25.70;52.90;;;;;;7552135;19;20010;-73
2023/07/22 17:21:05;;;;;;;5.03;3.55;;;25.50;53.60;;;;;;7576299;19;20082;-74
2023/07/22 17:23:38;;;;;;;7.20;4.17;;;25.30;53.40;;;;;;7582231;19;20026;-73
2023/07/22 17:26:11;;;;;;;5.00;3.88;;;25.20;53.70;;;;;;7572632;19;21862;-75
2023/07/22 17:28:43;;;;;;;7.50;4.72;;;25.10;53.20;;;;;;7581254;19;20018;-75
2023/07/22 17:31:16;;;;;;;6.00;4.22;;;25.00;54.30;;;;;;7579623;19;20030;-75
2023/07/22 17:33:49;;;;;;;7.35;4.70;;;24.90;52.90;;;;;;7580135;19;20019;-73
2023/07/22 17:36:23;;;;;;;9.25;4.90;;;24.60;54.00;;;;;;7571052;19;20029;-73
2023/07/22 17:38:55;;;;;;;6.82;4.45;;;24.50;55.00;;;;;;7593859;19;20018;-75
2023/07/22 17:41:27;;;;;;;5.57;3.97;;;24.40;54.40;;;;;;7584972;19;20045;-73
2023/07/22 17:44:00;;;;;;;7.00;4.43;;;24.30;55.10;;;;;;7592392;19;20014;-74
2023/07/22 17:46:33;;;;;;;7.85;4.60;;;24.20;55.30;;;;;;7558407;19;20014;-74
2023/07/22 17:49:06;;;;;;;6.50;4.00;;;24.10;55.50;;;;;;7587826;19;20022;-75
2023/07/22 17:51:38;;;;;;;7.32;3.78;;;24.10;56.20;;;;;;7566502;19;20067;-75
2023/07/22 17:54:11;;;;;;;6.68;3.60;;;24.00;57.20;;;;;;7590491;19;20038;-73
2023/07/22 17:56:43;;;;;;;5.55;3.67;;;24.00;58.30;;;;;;7559898;19;20023;-74
2023/07/22 17:59:15;;;;;;;6.32;3.70;;;24.00;57.20;;;;;;7561627;19;20022;-75
2023/07/22 18:01:47;;;;;;;7.95;3.75;;;23.90;57.10;;;;;;7528152;19;20050;-73
2023/07/22 18:04:20;;;;;;;11.50;4.13;;;23.80;58.30;;;;;;7589424;19;20018;-74
2023/07/22 18:06:52;;;;;;;6.47;3.78;;;23.80;57.80;;;;;;7587687;19;20014;-74
2023/07/22 18:09:24;;;;;;;6.68;3.83;;;23.70;58.00;;;;;;7540883;19;20649;-74
2023/07/22 18:11:57;;;;;;;6.17;3.73;;;23.60;57.80;;;;;;7580101;19;20036;-74
2023/07/22 18:14:29;;;;;;;7.03;4.30;;;23.60;58.30;;;;;;7557853;19;20018;-74
2023/07/22 18:17:05;;;;;;;11.63;7.80;;;23.60;58.90;;;;;;7572389;19;20118;-74
2023/07/22 18:19:37;;;;;;;13.13;8.70;;;23.50;58.50;;;;;;7571556;19;20014;-74
2023/07/22 18:22:10;;;;;;;10.50;6.53;;;23.50;58.60;;;;;;7576475;19;20018;-73
2023/07/22 18:24:42;;;;;;;11.77;7.80;;;23.40;59.50;;;;;;7583744;19;20026;-72
2023/07/22 18:27:14;;;;;;;10.68;7.95;;;23.30;60.00;;;;;;7578786;19;20025;-72
2023/07/22 18:29:47;;;;;;;9.85;7.07;;;23.20;61.80;;;;;;7572280;19;20880;-73
2023/07/22 18:32:19;;;;;;;12.07;6.65;;;23.30;60.80;;;;;;7561956;19;20022;-73
2023/07/22 18:34:52;;;;;;;9.38;6.10;;;23.20;61.60;;;;;;7593020;19;20014;-74
2023/07/22 18:37:26;;;;;;;7.95;5.43;;;23.20;62.10;;;;;;7565430;19;20022;-73
2023/07/22 18:39:58;;;;;;;9.07;5.05;;;23.10;62.40;;;;;;7577768;19;20033;-74
2023/07/22 18:42:30;;;;;;;7.65;4.78;;;23.10;61.00;;;;;;7547140;19;20011;-74
2023/07/22 18:45:03;;;;;;;7.10;4.65;;;23.10;60.60;;;;;;7581796;19;20018;-72
2023/07/22 18:47:36;;;;;;;6.65;3.90;;;23.10;61.30;;;;;;7575164;19;20023;-72
2023/07/22 18:50:08;;;;;;;7.07;4.53;;;23.00;61.10;;;;;;7572108;19;20030;-72
2023/07/22 18:52:40;;;;;;;11.25;4.93;;;23.00;63.80;;;;;;7558504;19;20023;-74
2023/07/22 18:55:13;;;;;;;7.22;4.47;;;22.80;63.80;;;;;;7579087;19;20021;-73
2023/07/22 18:57:45;;;;;;;7.53;4.13;;;22.70;66.00;;;;;;7563548;19;20028;-74
2023/07/22 19:00:18;;;;;;;9.48;4.35;;;22.50;67.80;;;;;;7542371;19;20019;-72
2023/07/22 19:02:50;;;;;;;5.85;4.10;;;22.40;67.70;;;;;;7560652;19;20007;-73
2023/07/22 19:05:23;;;;;;;7.00;4.37;;;22.20;69.50;;;;;;7583061;19;20914;-72
2023/07/22 19:07:55;;;;;;;8.13;3.80;;;22.00;71.10;;;;;;7576434;19;20866;-73
2023/07/22 19:10:28;;;;;;;7.47;4.37;;;21.80;72.50;;;;;;7593176;19;20671;-73
2023/07/22 19:13:00;;;;;;;11.35;4.55;;;21.70;73.70;;;;;;7588963;19;20918;-74
2023/07/22 19:15:32;;;;;;;5.68;3.97;;;21.50;74.00;;;;;;7587193;19;20018;-73
2023/07/22 19:18:05;;;;;;;7.95;4.32;;;21.30;74.30;;;;;;7593431;19;20863;-74
2023/07/22 19:20:37;;;;;;;8.57;5.10;;;21.20;74.40;;;;;;7591112;19;20015;-72
2023/07/22 19:23:10;;;;;;;13.52;5.40;;;21.00;74.60;;;;;;7597635;19;20018;-74
2023/07/22 19:25:42;;;;;;;9.55;4.95;;;20.90;74.70;;;;;;7581204;19;20010;-74
2023/07/22 19:28:14;;;;;;;12.40;6.25;;;20.80;75.20;;;;;;7559758;19;20101;-74
2023/07/22 19:30:51;;;;;;;16.00;8.80;;;20.60;75.90;;;;;;7576063;19;20113;-74
2023/07/22 19:33:24;;;;;;;14.13;8.48;;;20.60;76.40;;;;;;7581444;19;22905;-73
2023/07/22 19:36:05;;;;;;;13.15;7.95;;;20.50;77.40;;;;;;7587175;19;20014;-73
2023/07/22 19:38:38;;;;;;;10.63;7.13;;;20.30;77.70;;;;;;7596376;19;20026;-73
2023/07/22 19:41:12;;;;;;;10.90;6.50;;;20.20;78.20;;;;;;7596236;19;20052;-74
2023/07/22 19:43:44;;;;;;;10.38;5.60;;;20.20;77.90;;;;;;7555637;19;20014;-74
2023/07/22 19:46:17;;;;;;;10.33;6.03;;;20.10;79.50;;;;;;7577909;19;20026;-74
2023/07/22 19:48:50;;;;;;;18.33;6.95;;;20.00;79.40;;;;;;7563742;19;20019;-73
2023/07/22 19:51:22;;;;;;;14.85;8.43;;;20.00;79.10;;;;;;7560218;19;20019;-75
2023/07/22 19:53:55;;;;;;;17.40;9.57;;;19.90;80.00;;;;;;7581793;19;20011;-73
2023/07/22 19:56:27;;;;;;;16.02;7.75;;;19.80;81.00;;;;;;7582309;19;20297;-73
2023/07/22 19:58:59;;;;;;;11.82;7.55;;;19.70;81.10;;;;;;7587504;19;21318;-74
2023/07/22 20:01:32;;;;;;;14.18;8.00;;;19.70;80.80;;;;;;7586699;19;20014;-74
2023/07/22 20:04:04;;;;;;;13.75;8.13;;;19.60;81.50;;;;;;7587942;19;20019;-73
2023/07/22 20:06:37;;;;;;;14.68;7.82;;;19.70;81.50;;;;;;7597425;19;20023;-73
2023/07/22 20:09:09;;;;;;;10.95;7.53;;;19.70;80.70;;;;;;7585468;19;20011;-73
2023/07/22 20:11:41;;;;;;;10.90;7.35;;;19.80;81.10;;;;;;7571301;19;20029;-75
2023/07/22 20:14:14;;;;;;;12.95;7.45;;;19.70;82.30;;;;;;7583080;19;20026;-72
2023/07/22 20:16:47;;;;;;;11.60;7.10;;;19.60;83.10;;;;;;7573924;19;20822;-73
2023/07/22 20:19:19;;;;;;;13.50;7.40;;;19.50;83.20;;;;;;7579411;19;20014;-72
2023/07/22 20:21:52;;;;;;;10.55;6.57;;;19.50;83.00;;;;;;7577836;19;20642;-73
2023/07/22 20:24:24;;;;;;;11.52;6.95;;;19.60;81.70;;;;;;7575422;19;20143;-72
2023/07/22 20:26:56;;;;;;;13.98;7.07;;;19.80;79.50;;;;;;7584371;19;20007;-72
2023/07/22 20:29:28;;;;;;;12.18;6.15;;;19.90;78.80;;;;;;7577950;19;20015;-73
2023/07/22 20:32:01;;;;;;;8.48;6.03;;;19.90;78.30;;;;;;7574724;19;20010;-74
2023/07/22 20:34:40;;;;;;;9.07;5.45;;;19.90;77.80;;;;;;7582515;19;20029;-74
2023/07/22 20:37:12;;;;;;;10.57;5.35;;;19.80;77.80;;;;;;7592893;19;20018;-72
2023/07/22 20:39:44;;;;;;;8.65;5.85;;;19.80;78.10;;;;;;7574459;19;20049;-74
2023/07/22 20:42:17;;;;;;;7.28;5.40;;;19.70;77.50;;;;;;7586695;19;20018;-73
2023/07/22 20:44:49;;;;;;;9.73;5.75;;;19.70;77.60;;;;;;7582146;19;20039;-74
2023/07/22 20:47:21;;;;;;;9.13;6.10;;;19.70;77.80;;;;;;7573839;19;20610;-73
2023/07/22 20:49:54;;;;;;;11.88;7.70;;;19.60;81.80;;;;;;7573937;19;20584;-75
2023/07/22 20:52:26;;;;;;;10.93;6.90;;;19.40;82.60;;;;;;7589645;19;20021;-74
2023/07/22 20:54:59;;;;;;;10.48;7.32;;;19.40;82.00;;;;;;7581178;19;20454;-73
2023/07/22 20:57:31;;;;;;;10.85;6.68;;;19.40;82.10;;;;;;7589672;19;20884;-74
2023/07/22 21:00:06;;;;;;;13.75;8.30;;;19.20;84.30;;;;;;7585436;19;20018;-74
2023/07/22 21:02:38;;;;;;;16.13;8.35;;;19.20;81.70;;;;;;7579967;19;20051;-75
2023/07/22 21:05:11;;;;;;;13.25;8.70;;;19.30;82.20;;;;;;7560509;19;20019;-72
2023/07/22 21:07:43;;;;;;;10.50;7.10;;;19.30;81.20;;;;;;7585796;19;21014;-73
2023/07/22 21:10:15;;;;;;;10.07;7.50;;;19.30;81.10;;;;;;7590931;19;20085;-72
2023/07/22 21:12:47;;;;;;;8.75;6.65;;;19.20;82.90;;;;;;7575610;19;20018;-74
2023/07/22 21:15:20;;;;;;;12.77;8.53;;;19.10;83.70;;;;;;7577498;19;20445;-72
2023/07/22 21:17:52;;;;;;;10.00;7.03;;;19.10;81.70;;;;;;7561827;19;20057;-74
2023/07/22 21:20:25;;;;;;;9.95;6.35;;;19.10;81.00;;;;;;7586774;19;20277;-73
2023/07/22 21:22:57;;;;;;;9.77;6.63;;;19.10;80.50;;;;;;7574862;19;20010;-74
2023/07/22 21:25:31;;;;;;;9.70;5.97;;;19.00;81.20;;;;;;7592230;19;20602;-74
2023/07/22 21:28:03;;;;;;;9.02;5.05;;;18.90;82.00;;;;;;7596486;19;20014;-74
2023/07/22 21:30:35;;;;;;;7.65;5.07;;;18.80;84.50;;;;;;7583709;19;20033;-74
2023/07/22 21:33:08;;;;;;;7.47;4.80;;;18.70;84.40;;;;;;7561425;19;20014;-73
2023/07/22 21:35:40;;;;;;;6.90;4.93;;;18.60;86.40;;;;;;7580753;19;20050;-75
2023/07/22 21:38:12;;;;;;;9.27;5.93;;;18.50;87.20;;;;;;7582451;19;20121;-73
2023/07/22 21:40:49;;;;;;;7.28;5.10;;;18.60;85.40;;;;;;7588805;19;20022;-73
2023/07/22 21:43:21;;;;;;;8.57;5.63;;;18.50;84.90;;;;;;7590845;19;21657;-72
2023/07/22 21:45:54;;;;;;;14.45;6.07;;;18.50;84.80;;;;;;7582505;19;21649;-74
2023/07/22 21:48:26;;;;;;;9.00;5.80;;;18.50;84.70;;;;;;7575354;19;20499;-72
2023/07/22 21:50:58;;;;;;;11.18;5.15;;;18.50;84.70;;;;;;7577569;19;20468;-73
2023/07/22 21:53:31;;;;;;;12.32;5.57;;;18.50;85.20;;;;;;7567675;19;20049;-73
2023/07/22 21:56:03;;;;;;;8.40;5.60;;;18.30;85.50;;;;;;7584013;19;20010;-75
2023/07/22 21:58:35;;;;;;;9.38;4.80;;;18.30;86.00;;;;;;7576139;19;20021;-72
2023/07/22 22:01:07;;;;;;;7.78;4.60;;;18.30;86.20;;;;;;7579872;19;20024;-72
2023/07/22 22:03:40;;;;;;;6.32;4.32;;;18.30;86.70;;;;;;7589380;19;20046;-74
2023/07/22 22:06:12;;;;;;;7.75;4.88;;;18.20;87.10;;;;;;7595298;19;20056;-73
2023/07/22 22:08:44;;;;;;;9.00;5.35;;;18.10;88.70;;;;;;7587813;19;20026;-73
2023/07/22 22:11:16;;;;;;;8.85;5.60;;;18.00;88.60;;;;;;7591878;19;20018;-74
2023/07/22 22:13:48;;;;;;;9.02;5.68;;;17.90;89.90;;;;;;7587653;19;20018;-73
2023/07/22 22:16:21;;;;;;;9.18;6.55;;;18.00;89.50;;;;;;7599483;19;21149;-73